Time;durP1;ratioP1;P1;durP2;ratioP2;P2;SDS_P1;SDS_P2;PMS_P1;PMS_P2;Temp;Humidity;BMP_temperature;BMP_pressure;BME280_temperature;BME280_humidity;BME280_pressure;Samples;Min_cycle;Max_cycle;Signal;HPM_P1;HPM_P2
2023/09/14 00:03:20;;;;;;;18.58;14.35;;;;;;;;;;10288153;28;20419;-90
2023/09/14 00:08:22;;;;;;;18.38;14.50;;;;;;;;;;10314671;28;20428;-90
2023/09/14 00:13:26;;;;;;;19.35;14.40;;;;;;;;;;10303441;28;20404;-90
2023/09/14 00:18:29;;;;;;;19.63;14.05;;;;;;;;;;10310723;28;20530;-90
2023/09/14 00:23:31;;;;;;;18.35;13.35;;;;;;;;;;10351446;28;20395;-91
2023/09/14 00:28:34;;;;;;;17.40;13.20;;;;;;;;;;10345905;28;20421;-90
2023/09/14 00:33:37;;;;;;;18.15;13.85;;;;;;;;;;10340091;28;20415;-91
2023/09/14 00:38:39;;;;;;;17.75;13.68;;;;;;;;;;10349364;28;20461;-90
2023/09/14 00:43:43;;;;;;;17.33;13.07;;;;;;;;;;10354804;28;20438;-89
2023/09/14 00:48:45;;;;;;;17.38;13.88;;;;;;;;;;10345051;28;20944;-90
2023/09/14 00:53:50;;;;;;;16.47;13.10;;;;;;;;;;10340362;28;20773;-90
2023/09/14 00:58:55;;;;;;;18.67;13.63;;;;;;;;;;10312799;28;20460;-91
2023/09/14 01:03:57;;;;;;;17.20;13.75;;;;;;;;;;10322457;28;20421;-90
2023/09/14 01:09:00;;;;;;;14.90;12.65;;;;;;;;;;10335838;28;20412;-90
2023/09/14 01:14:12;;;;;;;17.10;13.32;;;;;;;;;;10340006;28;20463;-91
2023/09/14 01:19:39;;;;;;;18.42;13.50;;;;;;;;;;10326004;28;20482;-90
2023/09/14 01:24:51;;;;;;;17.53;13.33;;;;;;;;;;10337961;28;20435;-91
2023/09/14 01:29:58;;;;;;;18.48;14.32;;;;;;;;;;10339268;28;20467;-90
2023/09/14 01:35:00;;;;;;;17.90;14.82;;;;;;;;;;10330412;28;20420;-90
2023/09/14 01:40:08;;;;;;;18.75;15.30;;;;;;;;;;10329520;28;20820;-91
2023/09/14 01:45:13;;;;;;;19.80;15.35;;;;;;;;;;10329996;28;20758;-90
2023/09/14 01:50:15;;;;;;;19.00;15.80;;;;;;;;;;10337747;28;20487;-90
2023/09/14 01:55:18;;;;;;;20.02;14.85;;;;;;;;;;10341355;28;20472;-90
2023/09/14 02:00:22;;;;;;;22.42;17.27;;;;;;;;;;10353308;28;20417;-91
2023/09/14 02:05:24;;;;;;;22.25;16.70;;;;;;;;;;10343070;28;20463;-90
2023/09/14 02:10:28;;;;;;;21.05;16.77;;;;;;;;;;10337549;28;20441;-90
2023/09/14 02:15:32;;;;;;;20.10;16.37;;;;;;;;;;10347204;28;20438;-90
2023/09/14 02:20:35;;;;;;;21.92;17.35;;;;;;;;;;10354340;28;20461;-90
2023/09/14 02:25:38;;;;;;;19.67;16.73;;;;;;;;;;10337915;28;20982;-90
2023/09/14 02:30:43;;;;;;;22.35;16.80;;;;;;;;;;10338258;28;20928;-90
2023/09/14 02:35:50;;;;;;;22.58;16.90;;;;;;;;;;10342684;28;20440;-91
2023/09/14 02:40:54;;;;;;;20.75;15.65;;;;;;;;;;10354436;28;20539;-91
2023/09/14 02:45:57;;;;;;;19.25;15.43;;;;;;;;;;10330892;28;20459;-91
2023/09/14 02:51:00;;;;;;;19.27;14.77;;;;;;;;;;10340356;28;20408;-91
2023/09/14 02:56:07;;;;;;;20.55;15.25;;;;;;;;;;10351363;28;20413;-91
2023/09/14 03:01:11;;;;;;;18.45;14.50;;;;;;;;;;10324317;28;20471;-91
2023/09/14 03:06:14;;;;;;;20.08;15.88;;;;;;;;;;10339450;28;20487;-90
2023/09/14 03:11:16;;;;;;;20.47;15.57;;;;;;;;;;10335190;28;20473;-90
2023/09/14 03:16:20;;;;;;;20.33;15.15;;;;;;;;;;10338688;28;20412;-91
2023/09/14 03:21:24;;;;;;;19.50;15.25;;;;;;;;;;10334994;28;20487;-91
2023/09/14 03:26:27;;;;;;;19.38;14.88;;;;;;;;;;10337475;28;20464;-91
2023/09/14 03:31:31;;;;;;;18.20;14.57;;;;;;;;;;10335972;28;20966;-89
2023/09/14 03:36:33;;;;;;;17.83;13.63;;;;;;;;;;10334869;28;20409;-90
2023/09/14 03:41:36;;;;;;;18.02;12.93;;;;;;;;;;10335164;28;20471;-90
2023/09/14 03:46:40;;;;;;;19.05;12.80;;;;;;;;;;10344922;28;20434;-90
2023/09/14 03:51:42;;;;;;;16.98;13.02;;;;;;;;;;10339075;28;20456;-91
2023/09/14 03:56:45;;;;;;;18.75;14.32;;;;;;;;;;10338421;28;20436;-90
2023/09/14 04:01:48;;;;;;;19.10;14.15;;;;;;;;;;10334992;28;20428;-91
2023/09/14 04:06:51;;;;;;;18.48;13.70;;;;;;;;;;10333479;28;20429;-90
2023/09/14 04:11:53;;;;;;;19.10;13.83;;;;;;;;;;10344050;28;20489;-90
2023/09/14 04:16:59;;;;;;;18.30;13.70;;;;;;;;;;10336584;28;20495;-88
2023/09/14 04:22:01;;;;;;;17.40;13.20;;;;;;;;;;10335619;28;20417;-90
2023/09/14 04:27:04;;;;;;;19.40;13.63;;;;;;;;;;10335114;28;20428;-90
2023/09/14 04:32:08;;;;;;;17.83;14.05;;;;;;;;;;10331652;28;20429;-91
2023/09/14 04:37:10;;;;;;;19.20;13.87;;;;;;;;;;10332221;28;20412;-91
2023/09/14 04:42:14;;;;;;;17.60;14.15;;;;;;;;;;10333967;28;20897;-90
2023/09/14 04:47:17;;;;;;;20.02;15.15;;;;;;;;;;10342367;28;20830;-90
2023/09/14 04:52:20;;;;;;;19.80;15.52;;;;;;;;;;10349068;28;20877;-90
2023/09/14 04:57:24;;;;;;;23.50;17.15;;;;;;;;;;10342941;28;21032;-90
2023/09/14 05:02:28;;;;;;;25.65;19.13;;;;;;;;;;10331716;28;20406;-90
2023/09/14 05:07:31;;;;;;;23.03;18.30;;;;;;;;;;10335307;28;20484;-91
2023/09/14 05:12:33;;;;;;;24.40;19.17;;;;;;;;;;10341585;28;20471;-90
2023/09/14 05:17:37;;;;;;;26.55;20.50;;;;;;;;;;10334368;28;21036;-90
2023/09/14 05:22:39;;;;;;;27.75;20.05;;;;;;;;;;10330402;28;20827;-89
2023/09/14 05:27:42;;;;;;;26.52;20.90;;;;;;;;;;10343524;28;20426;-90
2023/09/14 05:32:46;;;;;;;24.93;19.93;;;;;;;;;;10334432;28;20483;-88
2023/09/14 05:37:57;;;;;;;26.47;20.83;;;;;;;;;;10333062;28;20412;-88
2023/09/14 05:42:59;;;;;;;26.85;20.35;;;;;;;;;;10337118;28;20443;-87
2023/09/14 05:48:05;;;;;;;27.80;20.53;;;;;;;;;;10341676;28;20461;-88
2023/09/14 05:53:07;;;;;;;29.67;21.77;;;;;;;;;;10342669;28;20409;-89
2023/09/14 05:58:09;;;;;;;25.60;19.90;;;;;;;;;;10331652;28;20452;-88
2023/09/14 06:03:13;;;;;;;26.13;19.75;;;;;;;;;;10334071;28;20975;-87
2023/09/14 06:08:16;;;;;;;25.17;19.88;;;;;;;;;;10338258;28;20456;-87
2023/09/14 06:13:20;;;;;;;27.33;20.27;;;;;;;;;;10322281;28;20993;-87
2023/09/14 06:18:24;;;;;;;25.87;19.87;;;;;;;;;;10326158;28;20456;-84
2023/09/14 06:23:26;;;;;;;26.90;19.60;;;;;;;;;;10324742;28;20475;-87
2023/09/14 06:28:29;;;;;;;26.65;19.40;;;;;;;;;;10331095;28;20904;-86
2023/09/14 06:33:32;;;;;;;27.60;19.95;;;;;;;;;;10332031;28;20452;-86
2023/09/14 06:38:35;;;;;;;29.90;20.83;;;;;;;;;;10340097;28;20419;-87
2023/09/14 06:43:37;;;;;;;25.88;19.58;;;;;;;;;;10342964;28;20826;-86
2023/09/14 06:48:41;;;;;;;26.70;19.40;;;;;;;;;;10339518;28;20483;-87
2023/09/14 06:53:43;;;;;;;26.07;19.07;;;;;;;;;;10335301;28;20488;-86
2023/09/14 06:58:46;;;;;;;25.77;18.30;;;;;;;;;;10337831;28;20413;-87
2023/09/14 07:03:50;;;;;;;23.07;19.03;;;;;;;;;;10335470;28;20421;-86
2023/09/14 07:08:52;;;;;;;22.00;18.13;;;;;;;;;;10337786;28;20882;-85
2023/09/14 07:13:55;;;;;;;18.95;14.40;;;;;;;;;;10346700;28;20413;-85
2023/09/14 07:19:00;;;;;;;16.70;13.10;;;;;;;;;;10343678;28;20544;-86
2023/09/14 07:24:02;;;;;;;18.67;14.25;;;;;;;;;;10341532;28;20459;-87
2023/09/14 07:29:04;;;;;;;20.38;15.00;;;;;;;;;;10338806;28;20422;-86
2023/09/14 07:34:08;;;;;;;19.35;15.70;;;;;;;;;;10346874;28;20461;-88
2023/09/14 07:39:10;;;;;;;19.00;15.10;;;;;;;;;;10336822;28;20412;-86
2023/09/14 07:44:13;;;;;;;17.92;14.48;;;;;;;;;;10336389;28;20417;-87
2023/09/14 07:49:16;;;;;;;16.02;13.55;;;;;;;;;;10337308;28;20487;-87
2023/09/14 07:54:19;;;;;;;18.60;14.33;;;;;;;;;;10338765;28;20444;-86
2023/09/14 07:59:21;;;;;;;17.08;13.90;;;;;;;;;;10343033;28;20455;-87
2023/09/14 08:04:25;;;;;;;18.25;14.35;;;;;;;;;;10342021;28;20480;-87
2023/09/14 08:09:27;;;;;;;16.60;13.25;;;;;;;;;;10348245;28;20904;-86
2023/09/14 08:14:30;;;;;;;15.07;13.10;;;;;;;;;;10344211;28;20492;-86
2023/09/14 08:19:34;;;;;;;17.85;13.68;;;;;;;;;;10336753;28;20417;-87
2023/09/14 08:24:36;;;;;;;19.10;14.13;;;;;;;;;;10340112;28;20421;-87
2023/09/14 08:29:38;;;;;;;15.93;12.63;;;;;;;;;;10343765;28;20487;-86
2023/09/14 08:34:42;;;;;;;15.30;12.30;;;;;;;;;;10337435;28;20460;-86
2023/09/14 08:39:44;;;;;;;14.20;12.63;;;;;;;;;;10331410;28;20417;-87
2023/09/14 08:44:48;;;;;;;15.03;11.83;;;;;;;;;;10333398;28;20823;-86
2023/09/14 08:49:55;;;;;;;14.40;11.90;;;;;;;;;;10340840;28;20475;-85
2023/09/14 08:54:58;;;;;;;13.52;12.00;;;;;;;;;;10340805;28;20413;-85
2023/09/14 09:00:03;;;;;;;15.25;11.57;;;;;;;;;;10338060;28;20421;-84
2023/09/14 09:05:08;;;;;;;13.60;11.65;;;;;;;;;;10338501;28;20411;-84
2023/09/14 09:10:17;;;;;;;14.57;10.95;;;;;;;;;;10336777;28;20532;-89
2023/09/14 09:15:22;;;;;;;11.80;10.60;;;;;;;;;;10332606;28;20413;-89
2023/09/14 09:20:27;;;;;;;12.93;10.47;;;;;;;;;;10344209;28;20819;-85
2023/09/14 09:25:42;;;;;;;12.97;10.70;;;;;;;;;;10337617;28;20416;-85
2023/09/14 09:30:44;;;;;;;12.80;10.82;;;;;;;;;;10331501;28;20913;-86
2023/09/14 09:35:48;;;;;;;15.40;11.70;;;;;;;;;;10342436;28;20405;-85
2023/09/14 09:40:50;;;;;;;14.65;12.32;;;;;;;;;;10338681;28;20881;-85
2023/09/14 09:45:54;;;;;;;14.83;11.27;;;;;;;;;;10334452;28;20828;-86
2023/09/14 09:50:58;;;;;;;17.27;12.60;;;;;;;;;;10337990;28;21351;-85
2023/09/14 09:56:01;;;;;;;14.60;12.25;;;;;;;;;;10341362;28;20411;-86
2023/09/14 10:01:03;;;;;;;15.73;12.90;;;;;;;;;;10341142;28;20455;-85
2023/09/14 10:06:09;;;;;;;17.02;13.27;;;;;;;;;;10342312;28;20408;-86
2023/09/14 10:11:12;;;;;;;20.40;14.60;;;;;;;;;;10342464;28;20490;-86
2023/09/14 10:16:14;;;;;;;17.35;14.68;;;;;;;;;;10342350;28;20486;-89
2023/09/14 10:21:19;;;;;;;19.63;14.73;;;;;;;;;;10354222;28;20474;-89
2023/09/14 10:26:21;;;;;;;20.00;13.98;;;;;;;;;;10338098;28;20428;-89
2023/09/14 10:31:25;;;;;;;18.40;14.40;;;;;;;;;;10337601;28;21003;-88
2023/09/14 10:36:31;;;;;;;20.08;14.30;;;;;;;;;;10339042;28;20405;-89
2023/09/14 10:41:33;;;;;;;16.83;13.43;;;;;;;;;;10334152;28;20401;-88
2023/09/14 10:46:41;;;;;;;14.45;12.35;;;;;;;;;;10341125;28;20475;-89
2023/09/14 10:51:47;;;;;;;14.15;12.45;;;;;;;;;;10331403;28;20432;-88
2023/09/14 10:56:55;;;;;;;15.00;12.60;;;;;;;;;;10341824;28;20459;-88
2023/09/14 11:01:57;;;;;;;14.60;13.00;;;;;;;;;;10334169;28;20483;-88
2023/09/14 11:07:04;;;;;;;15.10;13.33;;;;;;;;;;10327877;28;20433;-89
2023/09/14 11:12:21;;;;;;;14.73;12.73;;;;;;;;;;10347815;28;20494;-88
2023/09/14 11:17:24;;;;;;;15.18;12.30;;;;;;;;;;10331878;28;20433;-88
2023/09/14 11:22:29;;;;;;;11.85;9.98;;;;;;;;;;10330467;28;20421;-89
2023/09/14 11:27:34;;;;;;;14.35;11.15;;;;;;;;;;10331116;28;20417;-89
2023/09/14 11:32:39;;;;;;;13.27;11.27;;;;;;;;;;10329746;28;20487;-88
2023/09/14 11:37:43;;;;;;;12.43;10.90;;;;;;;;;;10331674;28;20419;-89
2023/09/14 11:43:20;;;;;;;12.50;10.48;;;;;;;;;;10331902;28;20430;-88
2023/09/14 11:48:23;;;;;;;13.90;11.63;;;;;;;;;;10318154;28;20424;-88
2023/09/14 11:53:29;;;;;;;15.68;12.85;;;;;;;;;;10326764;28;20412;-87
2023/09/14 11:58:35;;;;;;;14.00;11.50;;;;;;;;;;10334933;28;20415;-88
2023/09/14 12:03:38;;;;;;;13.15;11.10;;;;;;;;;;10336330;28;20420;-88
2023/09/14 12:08:48;;;;;;;13.63;11.73;;;;;;;;;;10347713;28;20420;-87
2023/09/14 12:13:51;;;;;;;14.25;11.73;;;;;;;;;;10332072;28;21025;-87
2023/09/14 12:18:54;;;;;;;15.10;11.73;;;;;;;;;;10329963;28;20409;-87
2023/09/14 12:23:59;;;;;;;12.70;11.40;;;;;;;;;;10343009;28;20471;-87
2023/09/14 12:29:02;;;;;;;12.00;10.70;;;;;;;;;;10336339;28;20459;-86
2023/09/14 12:34:05;;;;;;;12.50;10.65;;;;;;;;;;10337760;28;20412;-87
2023/09/14 12:39:13;;;;;;;10.80;9.73;;;;;;;;;;10332819;28;20409;-87
2023/09/14 12:44:18;;;;;;;9.80;8.55;;;;;;;;;;10348062;28;20432;-88
2023/09/14 12:49:21;;;;;;;8.43;7.47;;;;;;;;;;10343139;28;20479;-86
2023/09/14 12:54:28;;;;;;;8.40;7.50;;;;;;;;;;10334503;28;20411;-87
2023/09/14 12:59:30;;;;;;;8.63;7.73;;;;;;;;;;10339610;28;20413;-87
2023/09/14 13:04:36;;;;;;;8.40;7.50;;;;;;;;;;10346916;28;20782;-88
2023/09/14 13:09:40;;;;;;;8.68;7.78;;;;;;;;;;10333921;28;20526;-87
2023/09/14 13:14:44;;;;;;;7.37;6.67;;;;;;;;;;10330026;28;20413;-87
2023/09/14 13:19:47;;;;;;;7.18;6.47;;;;;;;;;;10337215;28;20462;-87
2023/09/14 13:24:51;;;;;;;6.75;6.03;;;;;;;;;;10334077;28;20420;-86
2023/09/14 13:29:53;;;;;;;8.33;6.63;;;;;;;;;;10331980;28;20430;-88
2023/09/14 13:34:55;;;;;;;6.90;6.20;;;;;;;;;;10334952;28;20419;-88
2023/09/14 13:39:59;;;;;;;7.10;6.50;;;;;;;;;;10331271;28;20413;-87
2023/09/14 13:45:01;;;;;;;5.70;5.17;;;;;;;;;;10331285;28;20456;-87
2023/09/14 13:50:04;;;;;;;8.37;6.73;;;;;;;;;;10339302;28;20836;-87
2023/09/14 13:55:09;;;;;;;6.32;5.72;;;;;;;;;;10341046;28;20475;-88
2023/09/14 14:00:14;;;;;;;7.20;6.10;;;;;;;;;;10343085;28;20459;-87
2023/09/14 14:05:17;;;;;;;6.18;5.57;;;;;;;;;;10345878;28;20479;-87
2023/09/14 14:10:21;;;;;;;5.75;5.15;;;;;;;;;;10340509;28;20456;-89
2023/09/14 14:15:24;;;;;;;6.20;4.60;;;;;;;;;;10338418;28;20520;-85
2023/09/14 14:20:30;;;;;;;5.40;4.90;;;;;;;;;;10336138;28;20501;-85
2023/09/14 14:25:34;;;;;;;8.30;4.75;;;;;;;;;;10340378;28;20514;-78
2023/09/14 14:30:36;;;;;;;4.97;4.30;;;;;;;;;;10339618;28;20472;-81
2023/09/14 14:35:38;;;;;;;5.50;4.90;;;;;;;;;;10330267;28;20456;-87
2023/09/14 14:40:42;;;;;;;4.90;4.40;;;;;;;;;;10330987;28;20785;-89
2023/09/14 14:45:45;;;;;;;5.50;4.20;;;;;;;;;;10335220;28;20433;-89
2023/09/14 14:50:47;;;;;;;5.68;4.45;;;;;;;;;;10334754;28;20526;-88
2023/09/14 14:55:51;;;;;;;4.93;4.53;;;;;;;;;;10332904;28;20409;-88
2023/09/14 15:00:55;;;;;;;5.40;4.90;;;;;;;;;;10332433;28;20452;-89
2023/09/14 15:06:01;;;;;;;5.82;5.03;;;;;;;;;;10330405;28;20409;-87
2023/09/14 15:11:05;;;;;;;5.03;4.60;;;;;;;;;;10338047;28;20456;-87
2023/09/14 15:16:07;;;;;;;5.80;5.00;;;;;;;;;;10328678;28;20486;-87
2023/09/14 15:21:10;;;;;;;5.45;4.97;;;;;;;;;;10327626;28;20413;-88
2023/09/14 15:26:14;;;;;;;6.40;5.00;;;;;;;;;;10326764;28;20518;-88
2023/09/14 15:31:17;;;;;;;5.75;5.13;;;;;;;;;;10327447;28;20428;-87
2023/09/14 15:36:21;;;;;;;6.93;5.67;;;;;;;;;;10320973;28;20421;-87
2023/09/14 15:41:24;;;;;;;6.10;5.15;;;;;;;;;;10319210;28;20440;-84
2023/09/14 15:46:27;;;;;;;9.07;6.57;;;;;;;;;;10320984;28;20448;-84
2023/09/14 15:51:30;;;;;;;6.13;5.53;;;;;;;;;;10324852;28;20452;-83
2023/09/14 15:56:33;;;;;;;6.40;5.80;;;;;;;;;;10311084;28;20974;-85
2023/09/14 16:01:36;;;;;;;5.90;5.30;;;;;;;;;;10327386;28;20460;-87
2023/09/14 16:06:38;;;;;;;5.82;5.22;;;;;;;;;;10332419;28;20417;-87
2023/09/14 16:11:42;;;;;;;6.93;5.70;;;;;;;;;;10328531;28;20480;-88
2023/09/14 16:16:45;;;;;;;7.38;6.68;;;;;;;;;;10314142;28;20526;-88
2023/09/14 16:21:48;;;;;;;8.00;6.43;;;;;;;;;;10329095;28;20421;-88
2023/09/14 16:26:52;;;;;;;7.83;6.83;;;;;;;;;;10329126;28;20893;-88
2023/09/14 16:31:54;;;;;;;7.75;6.50;;;;;;;;;;10329741;28;20448;-87
2023/09/14 16:36:57;;;;;;;7.50;6.70;;;;;;;;;;10343338;28;20495;-87
2023/09/14 16:42:01;;;;;;;7.35;6.28;;;;;;;;;;10339455;28;20407;-88
2023/09/14 16:47:03;;;;;;;7.50;6.10;;;;;;;;;;10324389;28;20417;-88
2023/09/14 16:52:06;;;;;;;8.48;6.88;;;;;;;;;;10331422;28;20425;-88
2023/09/14 16:57:09;;;;;;;9.50;6.50;;;;;;;;;;10322909;28;20916;-86
2023/09/14 17:02:12;;;;;;;8.32;7.13;;;;;;;;;;10325020;28;20496;-87
2023/09/14 17:07:14;;;;;;;7.70;6.85;;;;;;;;;;10336122;28;20448;-88
2023/09/14 17:12:18;;;;;;;9.90;7.30;;;;;;;;;;10320961;28;20452;-88
2023/09/14 17:17:21;;;;;;;8.17;6.97;;;;;;;;;;10324854;28;21072;-86
2023/09/14 17:22:24;;;;;;;8.77;7.35;;;;;;;;;;10287752;28;20425;-87
2023/09/14 17:27:28;;;;;;;9.30;7.63;;;;;;;;;;10297404;28;20540;-87
2023/09/14 17:32:30;;;;;;;8.27;7.15;;;;;;;;;;10286017;28;20454;-87
2023/09/14 17:37:32;;;;;;;11.32;7.20;;;;;;;;;;10286287;28;20483;-85
2023/09/14 17:42:36;;;;;;;7.38;6.65;;;;;;;;;;10291130;28;20430;-87
2023/09/14 17:47:41;;;;;;;9.27;7.43;;;;;;;;;;10286691;28;20466;-85
2023/09/14 17:52:44;;;;;;;9.32;6.90;;;;;;;;;;10285004;28;20466;-87
2023/09/14 17:57:47;;;;;;;9.60;7.45;;;;;;;;;;10294135;28;20504;-87
2023/09/14 18:02:50;;;;;;;7.30;6.60;;;;;;;;;;10270881;28;20450;-81
2023/09/14 18:07:52;;;;;;;7.97;6.93;;;;;;;;;;10275065;28;20516;-87
2023/09/14 18:12:56;;;;;;;8.38;6.63;;;;;;;;;;10278163;28;20462;-87
2023/09/14 18:17:59;;;;;;;9.38;6.90;;;;;;;;;;10276630;28;20464;-86
2023/09/14 18:23:01;;;;;;;12.30;8.20;;;;;;;;;;10328984;28;20509;-86
2023/09/14 18:28:08;;;;;;;12.13;9.23;;;;;;;;;;10325887;28;20463;-87
2023/09/14 18:33:10;;;;;;;11.27;9.27;;;;;;;;;;10332041;28;20510;-87
2023/09/14 18:38:12;;;;;;;10.33;9.23;;;;;;;;;;10336456;28;20452;-85
2023/09/14 18:43:16;;;;;;;12.23;9.73;;;;;;;;;;10336091;28;20494;-86
2023/09/14 18:48:18;;;;;;;12.23;10.47;;;;;;;;;;10333336;28;20485;-87
2023/09/14 18:53:21;;;;;;;13.40;9.57;;;;;;;;;;10333377;28;20483;-87
2023/09/14 18:58:24;;;;;;;12.60;10.30;;;;;;;;;;10326915;28;21276;-87
2023/09/14 19:03:27;;;;;;;13.23;10.07;;;;;;;;;;10317010;28;20451;-85
2023/09/14 19:08:29;;;;;;;13.75;10.57;;;;;;;;;;10321590;28;20439;-85
2023/09/14 19:13:33;;;;;;;14.70;11.53;;;;;;;;;;10311055;28;20511;-85
2023/09/14 19:18:38;;;;;;;13.40;11.17;;;;;;;;;;10328302;28;20495;-86
2023/09/14 19:23:40;;;;;;;13.10;10.95;;;;;;;;;;10308858;28;20885;-85
2023/09/14 19:28:44;;;;;;;16.37;12.63;;;;;;;;;;10330743;28;20470;-85
2023/09/14 19:33:47;;;;;;;14.88;11.88;;;;;;;;;;10329862;28;20535;-85
2023/09/14 19:38:49;;;;;;;14.07;11.18;;;;;;;;;;10319592;28;21058;-86
2023/09/14 19:43:53;;;;;;;10.30;7.40;;;;;;;;;;10326751;28;20523;-84
2023/09/14 19:49:00;;;;;;;8.55;4.78;;;;;;;;;;10343372;28;20412;-86
2023/09/14 19:54:03;;;;;;;7.78;5.70;;;;;;;;;;10344786;28;20521;-86
2023/09/14 19:59:07;;;;;;;9.13;5.68;;;;;;;;;;10334532;28;20794;-86
2023/09/14 20:04:09;;;;;;;8.20;4.93;;;;;;;;;;10344153;28;20409;-89
2023/09/14 20:09:12;;;;;;;4.43;4.00;;;;;;;;;;10327373;28;20475;-84
2023/09/14 20:14:16;;;;;;;4.82;3.97;;;;;;;;;;10320155;28;20456;-85
2023/09/14 20:19:18;;;;;;;5.97;3.53;;;;;;;;;;10328814;28;20425;-87
2023/09/14 20:24:50;;;;;;;3.87;3.10;;;;;;;;;;10319681;28;20420;-87
2023/09/14 20:29:54;;;;;;;7.50;3.37;;;;;;;;;;10315912;28;20475;-86
2023/09/14 20:34:56;;;;;;;4.20;3.30;;;;;;;;;;10319095;28;20484;-87
2023/09/14 20:40:07;;;;;;;5.18;3.45;;;;;;;;;;10323499;28;20421;-86
2023/09/14 20:45:13;;;;;;;3.70;3.30;;;;;;;;;;10326986;28;20413;-87
2023/09/14 20:50:18;;;;;;;4.65;2.88;;;;;;;;;;10313767;28;20460;-87
2023/09/14 20:55:23;;;;;;;5.22;3.17;;;;;;;;;;10328702;28;20416;-87
2023/09/14 21:00:33;;;;;;;4.00;3.05;;;;;;;;;;10335200;28;20408;-87
2023/09/14 21:05:35;;;;;;;7.28;3.45;;;;;;;;;;10320978;28;20413;-87
2023/09/14 21:10:37;;;;;;;3.60;3.00;;;;;;;;;;10322741;28;20464;-86
2023/09/14 21:15:41;;;;;;;6.13;2.92;;;;;;;;;;10328652;28;20447;-87
2023/09/14 21:20:44;;;;;;;4.07;3.30;;;;;;;;;;10333693;28;20461;-88
2023/09/14 21:25:53;;;;;;;4.20;3.30;;;;;;;;;;10335957;28;20415;-88
2023/09/14 21:30:57;;;;;;;4.25;3.00;;;;;;;;;;10329397;28;20432;-87
2023/09/14 21:35:59;;;;;;;3.40;2.50;;;;;;;;;;10328686;28;20428;-87
2023/09/14 21:41:03;;;;;;;4.47;2.70;;;;;;;;;;10332063;28;20486;-88
2023/09/14 21:46:08;;;;;;;3.03;2.35;;;;;;;;;;10322595;28;20417;-88
2023/09/14 21:51:11;;;;;;;2.85;2.55;;;;;;;;;;10320722;28;20424;-88
2023/09/14 21:56:13;;;;;;;2.72;2.28;;;;;;;;;;10317414;28;20832;-88
2023/09/14 22:01:17;;;;;;;3.43;3.07;;;;;;;;;;10331149;28;20734;-87
2023/09/14 22:06:20;;;;;;;4.10;2.90;;;;;;;;;;10335985;28;20443;-86
2023/09/14 22:11:22;;;;;;;3.90;3.10;;;;;;;;;;10338147;28;20519;-87
2023/09/14 22:16:26;;;;;;;4.65;3.17;;;;;;;;;;10343803;28;20482;-88
2023/09/14 22:21:28;;;;;;;4.10;3.30;;;;;;;;;;10328607;28;20518;-87
2023/09/14 22:26:31;;;;;;;3.40;3.10;;;;;;;;;;10333000;28;21002;-87
2023/09/14 22:31:35;;;;;;;3.95;3.13;;;;;;;;;;10338029;28;20978;-87
2023/09/14 22:36:38;;;;;;;4.45;2.90;;;;;;;;;;10325146;28;20479;-87
2023/09/14 22:41:41;;;;;;;4.97;3.53;;;;;;;;;;10333328;28;20474;-89
2023/09/14 22:46:44;;;;;;;4.75;3.45;;;;;;;;;;10330403;28;20444;-86
2023/09/14 22:51:48;;;;;;;6.18;3.45;;;;;;;;;;10340275;28;20915;-86
2023/09/14 22:56:50;;;;;;;5.20;2.95;;;;;;;;;;10358714;28;20409;-86
2023/09/14 23:01:54;;;;;;;4.35;2.80;;;;;;;;;;10337137;28;20478;-86
2023/09/14 23:06:56;;;;;;;4.93;3.40;;;;;;;;;;10344981;28;20411;-85
2023/09/14 23:12:00;;;;;;;4.00;3.00;;;;;;;;;;10320284;28;20518;-87
2023/09/14 23:17:05;;;;;;;3.80;2.85;;;;;;;;;;10325760;23;20450;-87
2023/09/14 23:22:07;;;;;;;3.67;2.93;;;;;;;;;;10337073;28;20561;-85
2023/09/14 23:27:10;;;;;;;3.80;3.00;;;;;;;;;;10350510;28;20953;-88
2023/09/14 23:32:13;;;;;;;3.20;2.85;;;;;;;;;;10344162;28;20536;-87
2023/09/14 23:37:16;;;;;;;4.10;2.55;;;;;;;;;;10333149;28;20466;-86
2023/09/14 23:42:18;;;;;;;4.68;2.78;;;;;;;;;;10337321;28;20430;-87
2023/09/14 23:47:22;;;;;;;3.42;3.13;;;;;;;;;;10331363;28;20504;-86
2023/09/14 23:52:25;;;;;;;4.50;2.80;;;;;;;;;;10328163;28;20462;-86
2023/09/14 23:57:27;;;;;;;3.85;3.20;;;;;;;;;;10330372;28;20914;-86
